sensor_id;sensor_type;location;lat;lon;timestamp;P1;durP1;ratioP1;P2;durP2;ratioP2
36205;SDS011;22242;48.796;9.930;2023-02-13T00:00:28;29.02;;;14.23;;
36205;SDS011;22242;48.796;9.930;2023-02-13T00:02:56;27.38;;;13.02;;
36205;SDS011;22242;48.796;9.930;2023-02-13T00:05:23;27.08;;;13.35;;
36205;SDS011;22242;48.796;9.930;2023-02-13T00:07:50;28.65;;;13.35;;
36205;SDS011;22242;48.796;9.930;2023-02-13T00:10:17;27.33;;;12.57;;
36205;SDS011;22242;48.796;9.930;2023-02-13T00:12:45;25.52;;;12.13;;
36205;SDS011;22242;48.796;9.930;2023-02-13T00:15:12;24.90;;;12.65;;
36205;SDS011;22242;48.796;9.930;2023-02-13T00:17:39;24.08;;;11.75;;
36205;SDS011;22242;48.796;9.930;2023-02-13T00:20:07;25.42;;;11.75;;
36205;SDS011;22242;48.796;9.930;2023-02-13T00:22:36;28.85;;;12.32;;
36205;SDS011;22242;48.796;9.930;2023-02-13T00:25:04;29.92;;;13.82;;
36205;SDS011;22242;48.796;9.930;2023-02-13T00:27:32;23.85;;;12.13;;
36205;SDS011;22242;48.796;9.930;2023-02-13T00:30:01;26.00;;;12.18;;
36205;SDS011;22242;48.796;9.930;2023-02-13T00:32:29;26.75;;;13.25;;
36205;SDS011;22242;48.796;9.930;2023-02-13T00:34:56;24.95;;;11.95;;
36205;SDS011;22242;48.796;9.930;2023-02-13T00:37:23;23.58;;;11.18;;
36205;SDS011;22242;48.796;9.930;2023-02-13T00:39:50;27.70;;;11.63;;
36205;SDS011;22242;48.796;9.930;2023-02-13T00:42:18;25.60;;;12.30;;
36205;SDS011;22242;48.796;9.930;2023-02-13T00:44:48;17.33;;;9.52;;
36205;SDS011;22242;48.796;9.930;2023-02-13T00:47:17;25.15;;;12.85;;
36205;SDS011;22242;48.796;9.930;2023-02-13T00:49:44;26.63;;;12.75;;
36205;SDS011;22242;48.796;9.930;2023-02-13T00:52:11;25.38;;;12.93;;
36205;SDS011;22242;48.796;9.930;2023-02-13T00:54:38;24.92;;;11.82;;
36205;SDS011;22242;48.796;9.930;2023-02-13T00:57:05;25.10;;;12.57;;
36205;SDS011;22242;48.796;9.930;2023-02-13T00:59:33;27.20;;;13.15;;
36205;SDS011;22242;48.796;9.930;2023-02-13T01:02:00;24.23;;;11.15;;
36205;SDS011;22242;48.796;9.930;2023-02-13T01:04:28;20.60;;;10.52;;
36205;SDS011;22242;48.796;9.930;2023-02-13T01:06:55;23.83;;;10.98;;
36205;SDS011;22242;48.796;9.930;2023-02-13T01:09:23;22.10;;;11.20;;
36205;SDS011;22242;48.796;9.930;2023-02-13T01:11:49;22.33;;;11.45;;
36205;SDS011;22242;48.796;9.930;2023-02-13T01:14:16;23.50;;;11.20;;
36205;SDS011;22242;48.796;9.930;2023-02-13T01:16:45;23.90;;;12.02;;
36205;SDS011;22242;48.796;9.930;2023-02-13T01:19:13;26.15;;;11.38;;
36205;SDS011;22242;48.796;9.930;2023-02-13T01:21:41;21.85;;;11.13;;
36205;SDS011;22242;48.796;9.930;2023-02-13T01:24:08;23.38;;;10.60;;
36205;SDS011;22242;48.796;9.930;2023-02-13T01:26:35;20.90;;;10.85;;
36205;SDS011;22242;48.796;9.930;2023-02-13T01:29:03;25.15;;;12.13;;
36205;SDS011;22242;48.796;9.930;2023-02-13T01:31:30;22.42;;;11.82;;
36205;SDS011;22242;48.796;9.930;2023-02-13T01:33:58;26.70;;;11.40;;
36205;SDS011;22242;48.796;9.930;2023-02-13T01:36:25;23.90;;;11.30;;
36205;SDS011;22242;48.796;9.930;2023-02-13T01:38:55;22.70;;;11.18;;
36205;SDS011;22242;48.796;9.930;2023-02-13T01:41:23;23.50;;;11.77;;
36205;SDS011;22242;48.796;9.930;2023-02-13T01:43:55;25.85;;;12.18;;
36205;SDS011;22242;48.796;9.930;2023-02-13T01:46:26;19.50;;;10.68;;
36205;SDS011;22242;48.796;9.930;2023-02-13T01:48:58;25.33;;;12.70;;
36205;SDS011;22242;48.796;9.930;2023-02-13T01:51:32;25.20;;;12.57;;
36205;SDS011;22242;48.796;9.930;2023-02-13T01:54:02;21.17;;;11.20;;
36205;SDS011;22242;48.796;9.930;2023-02-13T01:56:34;22.05;;;11.30;;
36205;SDS011;22242;48.796;9.930;2023-02-13T01:59:07;18.27;;;9.70;;
36205;SDS011;22242;48.796;9.930;2023-02-13T02:01:45;20.63;;;10.00;;
36205;SDS011;22242;48.796;9.930;2023-02-13T02:04:14;19.25;;;8.60;;
36205;SDS011;22242;48.796;9.930;2023-02-13T02:06:45;12.68;;;6.63;;
36205;SDS011;22242;48.796;9.930;2023-02-13T02:09:26;14.55;;;7.00;;
36205;SDS011;22242;48.796;9.930;2023-02-13T02:11:58;15.18;;;7.47;;
36205;SDS011;22242;48.796;9.930;2023-02-13T02:14:27;16.40;;;7.45;;
36205;SDS011;22242;48.796;9.930;2023-02-13T02:16:55;12.52;;;6.53;;
36205;SDS011;22242;48.796;9.930;2023-02-13T02:19:25;13.57;;;7.10;;
36205;SDS011;22242;48.796;9.930;2023-02-13T02:22:04;14.52;;;7.28;;
36205;SDS011;22242;48.796;9.930;2023-02-13T02:34:16;9.35;;;5.10;;
36205;SDS011;22242;48.796;9.930;2023-02-13T02:37:04;12.60;;;6.45;;
36205;SDS011;22242;48.796;9.930;2023-02-13T02:39:43;9.00;;;5.57;;
36205;SDS011;22242;48.796;9.930;2023-02-13T02:42:17;9.65;;;5.45;;
36205;SDS011;22242;48.796;9.930;2023-02-13T02:44:53;9.07;;;5.22;;
36205;SDS011;22242;48.796;9.930;2023-02-13T02:47:30;8.07;;;4.88;;
36205;SDS011;22242;48.796;9.930;2023-02-13T02:50:23;8.70;;;5.35;;
36205;SDS011;22242;48.796;9.930;2023-02-13T02:53:02;9.75;;;4.47;;
36205;SDS011;22242;48.796;9.930;2023-02-13T02:55:37;11.20;;;5.15;;
36205;SDS011;22242;48.796;9.930;2023-02-13T02:58:12;8.70;;;4.32;;
36205;SDS011;22242;48.796;9.930;2023-02-13T03:01:02;8.98;;;4.95;;
36205;SDS011;22242;48.796;9.930;2023-02-13T03:03:50;7.30;;;4.30;;
36205;SDS011;22242;48.796;9.930;2023-02-13T03:06:42;7.43;;;4.43;;
36205;SDS011;22242;48.796;9.930;2023-02-13T03:09:13;5.68;;;3.80;;
36205;SDS011;22242;48.796;9.930;2023-02-13T03:12:02;7.85;;;4.00;;
36205;SDS011;22242;48.796;9.930;2023-02-13T03:14:47;6.70;;;4.30;;
36205;SDS011;22242;48.796;9.930;2023-02-13T03:17:14;6.22;;;3.80;;
36205;SDS011;22242;48.796;9.930;2023-02-13T03:23:10;5.35;;;3.50;;
36205;SDS011;22242;48.796;9.930;2023-02-13T03:25:45;6.60;;;3.55;;
36205;SDS011;22242;48.796;9.930;2023-02-13T03:28:21;5.68;;;3.22;;
36205;SDS011;22242;48.796;9.930;2023-02-13T03:31:14;6.55;;;3.40;;
36205;SDS011;22242;48.796;9.930;2023-02-13T03:33:53;6.60;;;3.47;;
36205;SDS011;22242;48.796;9.930;2023-02-13T03:39:34;7.85;;;3.60;;
36205;SDS011;22242;48.796;9.930;2023-02-13T03:42:11;7.03;;;3.50;;
36205;SDS011;22242;48.796;9.930;2023-02-13T03:44:45;7.30;;;3.50;;
36205;SDS011;22242;48.796;9.930;2023-02-13T03:47:38;6.63;;;3.55;;
36205;SDS011;22242;48.796;9.930;2023-02-13T03:50:06;8.55;;;3.70;;
36205;SDS011;22242;48.796;9.930;2023-02-13T03:52:36;6.57;;;3.92;;
36205;SDS011;22242;48.796;9.930;2023-02-13T03:55:08;6.70;;;4.00;;
36205;SDS011;22242;48.796;9.930;2023-02-13T03:57:58;8.00;;;4.20;;
36205;SDS011;22242;48.796;9.930;2023-02-13T04:00:47;9.55;;;5.50;;
36205;SDS011;22242;48.796;9.930;2023-02-13T04:03:19;10.55;;;5.75;;
36205;SDS011;22242;48.796;9.930;2023-02-13T04:05:52;11.60;;;6.78;;
36205;SDS011;22242;48.796;9.930;2023-02-13T04:08:24;14.02;;;6.78;;
36205;SDS011;22242;48.796;9.930;2023-02-13T04:10:53;12.50;;;6.93;;
36205;SDS011;22242;48.796;9.930;2023-02-13T04:13:29;15.52;;;8.40;;
36205;SDS011;22242;48.796;9.930;2023-02-13T04:16:00;16.10;;;8.82;;
36205;SDS011;22242;48.796;9.930;2023-02-13T04:18:31;19.92;;;10.93;;
36205;SDS011;22242;48.796;9.930;2023-02-13T04:21:00;23.23;;;11.95;;
36205;SDS011;22242;48.796;9.930;2023-02-13T04:23:28;17.00;;;9.43;;
36205;SDS011;22242;48.796;9.930;2023-02-13T04:25:57;17.73;;;8.40;;
36205;SDS011;22242;48.796;9.930;2023-02-13T04:28:27;15.65;;;8.30;;
36205;SDS011;22242;48.796;9.930;2023-02-13T04:30:54;20.63;;;9.73;;
36205;SDS011;22242;48.796;9.930;2023-02-13T04:33:22;16.52;;;8.32;;
36205;SDS011;22242;48.796;9.930;2023-02-13T04:35:49;16.38;;;8.93;;
36205;SDS011;22242;48.796;9.930;2023-02-13T04:38:16;17.10;;;8.80;;
36205;SDS011;22242;48.796;9.930;2023-02-13T04:40:43;17.52;;;9.05;;
36205;SDS011;22242;48.796;9.930;2023-02-13T04:43:11;17.83;;;8.93;;
36205;SDS011;22242;48.796;9.930;2023-02-13T04:45:38;16.95;;;9.05;;
36205;SDS011;22242;48.796;9.930;2023-02-13T04:48:05;14.93;;;8.60;;
36205;SDS011;22242;48.796;9.930;2023-02-13T04:50:32;20.42;;;10.23;;
36205;SDS011;22242;48.796;9.930;2023-02-13T04:52:59;20.10;;;10.85;;
36205;SDS011;22242;48.796;9.930;2023-02-13T04:55:26;19.80;;;9.75;;
36205;SDS011;22242;48.796;9.930;2023-02-13T04:57:54;18.92;;;10.05;;
36205;SDS011;22242;48.796;9.930;2023-02-13T05:00:23;22.42;;;10.57;;
36205;SDS011;22242;48.796;9.930;2023-02-13T05:02:52;20.50;;;10.95;;
36205;SDS011;22242;48.796;9.930;2023-02-13T05:05:19;21.70;;;10.68;;
36205;SDS011;22242;48.796;9.930;2023-02-13T05:07:47;21.67;;;10.82;;
36205;SDS011;22242;48.796;9.930;2023-02-13T05:10:13;22.13;;;10.18;;
36205;SDS011;22242;48.796;9.930;2023-02-13T05:12:40;21.33;;;10.75;;
36205;SDS011;22242;48.796;9.930;2023-02-13T05:15:08;20.85;;;10.38;;
36205;SDS011;22242;48.796;9.930;2023-02-13T05:17:36;22.60;;;11.30;;
36205;SDS011;22242;48.796;9.930;2023-02-13T05:20:03;23.90;;;11.23;;
36205;SDS011;22242;48.796;9.930;2023-02-13T05:22:31;22.00;;;11.23;;
36205;SDS011;22242;48.796;9.930;2023-02-13T05:25:21;23.92;;;11.32;;
36205;SDS011;22242;48.796;9.930;2023-02-13T05:27:48;21.10;;;9.75;;
36205;SDS011;22242;48.796;9.930;2023-02-13T05:30:15;18.95;;;10.43;;
36205;SDS011;22242;48.796;9.930;2023-02-13T05:32:42;19.95;;;10.20;;
36205;SDS011;22242;48.796;9.930;2023-02-13T05:35:10;20.25;;;10.57;;
36205;SDS011;22242;48.796;9.930;2023-02-13T05:37:37;21.63;;;10.60;;
36205;SDS011;22242;48.796;9.930;2023-02-13T05:40:05;20.10;;;10.85;;
36205;SDS011;22242;48.796;9.930;2023-02-13T05:42:32;20.38;;;10.45;;
36205;SDS011;22242;48.796;9.930;2023-02-13T05:44:59;21.08;;;11.20;;
36205;SDS011;22242;48.796;9.930;2023-02-13T05:47:26;20.20;;;10.75;;
36205;SDS011;22242;48.796;9.930;2023-02-13T05:49:55;12.25;;;7.63;;
36205;SDS011;22242;48.796;9.930;2023-02-13T05:52:22;15.68;;;7.93;;
36205;SDS011;22242;48.796;9.930;2023-02-13T05:54:49;22.65;;;10.38;;
36205;SDS011;22242;48.796;9.930;2023-02-13T05:57:16;19.65;;;10.55;;
36205;SDS011;22242;48.796;9.930;2023-02-13T05:59:43;20.27;;;10.48;;
36205;SDS011;22242;48.796;9.930;2023-02-13T06:02:10;23.65;;;11.32;;
36205;SDS011;22242;48.796;9.930;2023-02-13T06:04:37;21.38;;;10.93;;
36205;SDS011;22242;48.796;9.930;2023-02-13T06:07:07;22.42;;;10.95;;
36205;SDS011;22242;48.796;9.930;2023-02-13T06:09:34;20.67;;;11.75;;
36205;SDS011;22242;48.796;9.930;2023-02-13T06:12:00;22.80;;;11.35;;
36205;SDS011;22242;48.796;9.930;2023-02-13T06:14:27;19.15;;;10.20;;
36205;SDS011;22242;48.796;9.930;2023-02-13T06:16:54;26.70;;;12.00;;
36205;SDS011;22242;48.796;9.930;2023-02-13T06:19:21;21.75;;;11.02;;
36205;SDS011;22242;48.796;9.930;2023-02-13T06:21:48;21.58;;;11.80;;
36205;SDS011;22242;48.796;9.930;2023-02-13T06:24:16;23.00;;;11.43;;
36205;SDS011;22242;48.796;9.930;2023-02-13T06:26:44;23.25;;;10.40;;
36205;SDS011;22242;48.796;9.930;2023-02-13T06:29:10;18.40;;;9.70;;
36205;SDS011;22242;48.796;9.930;2023-02-13T06:31:38;20.38;;;10.25;;
36205;SDS011;22242;48.796;9.930;2023-02-13T06:34:05;20.88;;;10.77;;
36205;SDS011;22242;48.796;9.930;2023-02-13T06:36:32;21.05;;;10.95;;
36205;SDS011;22242;48.796;9.930;2023-02-13T06:39:00;20.23;;;10.82;;
36205;SDS011;22242;48.796;9.930;2023-02-13T06:41:28;20.80;;;11.68;;
36205;SDS011;22242;48.796;9.930;2023-02-13T06:43:56;25.02;;;12.05;;
36205;SDS011;22242;48.796;9.930;2023-02-13T06:46:23;22.63;;;11.05;;
36205;SDS011;22242;48.796;9.930;2023-02-13T06:48:49;22.25;;;11.68;;
36205;SDS011;22242;48.796;9.930;2023-02-13T06:51:16;19.60;;;10.82;;
36205;SDS011;22242;48.796;9.930;2023-02-13T06:53:44;20.15;;;10.45;;
36205;SDS011;22242;48.796;9.930;2023-02-13T06:56:11;19.23;;;10.52;;
36205;SDS011;22242;48.796;9.930;2023-02-13T06:58:39;17.83;;;10.27;;
36205;SDS011;22242;48.796;9.930;2023-02-13T07:01:06;19.13;;;10.77;;
36205;SDS011;22242;48.796;9.930;2023-02-13T07:03:33;18.27;;;9.73;;
36205;SDS011;22242;48.796;9.930;2023-02-13T07:06:00;18.83;;;9.88;;
36205;SDS011;22242;48.796;9.930;2023-02-13T07:11:23;15.60;;;9.38;;
36205;SDS011;22242;48.796;9.930;2023-02-13T07:13:52;18.70;;;10.55;;
36205;SDS011;22242;48.796;9.930;2023-02-13T07:16:19;15.95;;;10.30;;
36205;SDS011;22242;48.796;9.930;2023-02-13T07:18:46;16.30;;;9.55;;
36205;SDS011;22242;48.796;9.930;2023-02-13T07:21:13;16.42;;;10.07;;
36205;SDS011;22242;48.796;9.930;2023-02-13T07:23:40;16.23;;;10.07;;
36205;SDS011;22242;48.796;9.930;2023-02-13T07:26:07;16.08;;;10.00;;
36205;SDS011;22242;48.796;9.930;2023-02-13T07:28:35;18.77;;;10.45;;
36205;SDS011;22242;48.796;9.930;2023-02-13T07:31:04;20.95;;;11.15;;
36205;SDS011;22242;48.796;9.930;2023-02-13T07:33:31;16.25;;;9.80;;
36205;SDS011;22242;48.796;9.930;2023-02-13T07:35:58;15.18;;;9.93;;
36205;SDS011;22242;48.796;9.930;2023-02-13T07:38:28;18.67;;;10.93;;
36205;SDS011;22242;48.796;9.930;2023-02-13T07:40:56;18.25;;;10.68;;
36205;SDS011;22242;48.796;9.930;2023-02-13T07:43:24;17.85;;;10.25;;
36205;SDS011;22242;48.796;9.930;2023-02-13T07:45:51;17.60;;;10.02;;
36205;SDS011;22242;48.796;9.930;2023-02-13T07:48:21;16.30;;;9.95;;
36205;SDS011;22242;48.796;9.930;2023-02-13T07:50:49;19.33;;;10.32;;
36205;SDS011;22242;48.796;9.930;2023-02-13T07:53:16;14.68;;;8.88;;
36205;SDS011;22242;48.796;9.930;2023-02-13T07:55:43;14.02;;;8.27;;
36205;SDS011;22242;48.796;9.930;2023-02-13T07:58:10;12.93;;;7.95;;
36205;SDS011;22242;48.796;9.930;2023-02-13T08:00:37;12.23;;;7.35;;
36205;SDS011;22242;48.796;9.930;2023-02-13T08:03:04;10.38;;;6.93;;
36205;SDS011;22242;48.796;9.930;2023-02-13T08:05:32;9.63;;;6.50;;
36205;SDS011;22242;48.796;9.930;2023-02-13T08:07:59;7.60;;;5.63;;
36205;SDS011;22242;48.796;9.930;2023-02-13T08:10:26;6.68;;;5.97;;
36205;SDS011;22242;48.796;9.930;2023-02-13T08:13:11;6.88;;;5.63;;
36205;SDS011;22242;48.796;9.930;2023-02-13T08:15:40;5.88;;;5.38;;
36205;SDS011;22242;48.796;9.930;2023-02-13T08:18:08;5.32;;;4.82;;
36205;SDS011;22242;48.796;9.930;2023-02-13T08:20:37;5.85;;;5.25;;
36205;SDS011;22242;48.796;9.930;2023-02-13T08:23:04;6.43;;;5.82;;
36205;SDS011;22242;48.796;9.930;2023-02-13T08:25:33;7.88;;;6.93;;
36205;SDS011;22242;48.796;9.930;2023-02-13T08:28:00;7.57;;;6.20;;
36205;SDS011;22242;48.796;9.930;2023-02-13T08:30:27;5.88;;;5.38;;
36205;SDS011;22242;48.796;9.930;2023-02-13T08:32:54;6.35;;;5.75;;
36205;SDS011;22242;48.796;9.930;2023-02-13T08:35:21;10.32;;;8.23;;
36205;SDS011;22242;48.796;9.930;2023-02-13T08:37:52;6.68;;;6.07;;
36205;SDS011;22242;48.796;9.930;2023-02-13T08:40:19;5.95;;;5.28;;
36205;SDS011;22242;48.796;9.930;2023-02-13T08:42:46;5.03;;;4.57;;
36205;SDS011;22242;48.796;9.930;2023-02-13T08:45:13;4.93;;;4.53;;
36205;SDS011;22242;48.796;9.930;2023-02-13T08:47:41;5.72;;;5.03;;
36205;SDS011;22242;48.796;9.930;2023-02-13T08:50:08;4.80;;;4.43;;
36205;SDS011;22242;48.796;9.930;2023-02-13T08:52:35;5.53;;;5.03;;
36205;SDS011;22242;48.796;9.930;2023-02-13T08:55:04;5.60;;;5.10;;
36205;SDS011;22242;48.796;9.930;2023-02-13T08:57:31;5.40;;;4.90;;
36205;SDS011;22242;48.796;9.930;2023-02-13T08:59:58;4.72;;;4.22;;
36205;SDS011;22242;48.796;9.930;2023-02-13T09:02:25;5.07;;;4.68;;
36205;SDS011;22242;48.796;9.930;2023-02-13T09:04:52;5.00;;;4.60;;
36205;SDS011;22242;48.796;9.930;2023-02-13T09:07:19;4.88;;;4.53;;
36205;SDS011;22242;48.796;9.930;2023-02-13T09:09:46;4.95;;;4.55;;
36205;SDS011;22242;48.796;9.930;2023-02-13T09:12:15;4.18;;;3.88;;
36205;SDS011;22242;48.796;9.930;2023-02-13T09:14:42;4.93;;;4.53;;
36205;SDS011;22242;48.796;9.930;2023-02-13T09:17:08;5.40;;;5.00;;
36205;SDS011;22242;48.796;9.930;2023-02-13T09:19:35;5.05;;;4.65;;
36205;SDS011;22242;48.796;9.930;2023-02-13T09:22:02;5.07;;;4.57;;
36205;SDS011;22242;48.796;9.930;2023-02-13T09:24:29;4.53;;;4.18;;
36205;SDS011;22242;48.796;9.930;2023-02-13T09:26:56;4.53;;;4.20;;
36205;SDS011;22242;48.796;9.930;2023-02-13T09:29:24;5.10;;;4.70;;
36205;SDS011;22242;48.796;9.930;2023-02-13T09:31:55;4.65;;;4.25;;
36205;SDS011;22242;48.796;9.930;2023-02-13T09:34:22;5.00;;;4.60;;
36205;SDS011;22242;48.796;9.930;2023-02-13T09:36:50;4.32;;;4.03;;
36205;SDS011;22242;48.796;9.930;2023-02-13T09:39:17;4.88;;;4.47;;
36205;SDS011;22242;48.796;9.930;2023-02-13T09:41:45;4.43;;;4.10;;
36205;SDS011;22242;48.796;9.930;2023-02-13T09:44:15;4.35;;;4.05;;
36205;SDS011;22242;48.796;9.930;2023-02-13T09:47:01;4.90;;;4.43;;
36205;SDS011;22242;48.796;9.930;2023-02-13T09:49:34;5.45;;;4.95;;
36205;SDS011;22242;48.796;9.930;2023-02-13T09:52:06;5.75;;;5.20;;
36205;SDS011;22242;48.796;9.930;2023-02-13T09:54:34;5.32;;;4.80;;
36205;SDS011;22242;48.796;9.930;2023-02-13T09:57:02;4.93;;;4.43;;
36205;SDS011;22242;48.796;9.930;2023-02-13T09:59:43;5.40;;;4.53;;
36205;SDS011;22242;48.796;9.930;2023-02-13T10:02:23;5.05;;;4.43;;
36205;SDS011;22242;48.796;9.930;2023-02-13T10:05:04;4.75;;;4.35;;
36205;SDS011;22242;48.796;9.930;2023-02-13T10:07:43;4.80;;;4.35;;
36205;SDS011;22242;48.796;9.930;2023-02-13T10:10:20;4.32;;;3.92;;
36205;SDS011;22242;48.796;9.930;2023-02-13T10:12:55;4.75;;;4.35;;
36205;SDS011;22242;48.796;9.930;2023-02-13T10:15:29;5.55;;;4.93;;
36205;SDS011;22242;48.796;9.930;2023-02-13T10:18:02;4.68;;;4.28;;
36205;SDS011;22242;48.796;9.930;2023-02-13T10:20:33;6.10;;;5.57;;
36205;SDS011;22242;48.796;9.930;2023-02-13T10:23:11;4.43;;;4.03;;
36205;SDS011;22242;48.796;9.930;2023-02-13T10:25:45;4.90;;;4.43;;
36205;SDS011;22242;48.796;9.930;2023-02-13T10:28:19;4.32;;;3.92;;
36205;SDS011;22242;48.796;9.930;2023-02-13T10:30:55;4.40;;;4.00;;
36205;SDS011;22242;48.796;9.930;2023-02-13T10:33:28;5.55;;;4.53;;
36205;SDS011;22242;48.796;9.930;2023-02-13T10:36:00;4.40;;;4.00;;
36205;SDS011;22242;48.796;9.930;2023-02-13T10:38:30;4.50;;;4.10;;
36205;SDS011;22242;48.796;9.930;2023-02-13T10:41:02;4.70;;;4.20;;
36205;SDS011;22242;48.796;9.930;2023-02-13T10:43:35;4.40;;;4.00;;
36205;SDS011;22242;48.796;9.930;2023-02-13T10:46:10;3.85;;;3.55;;
36205;SDS011;22242;48.796;9.930;2023-02-13T10:49:00;4.78;;;4.38;;
36205;SDS011;22242;48.796;9.930;2023-02-13T10:52:02;4.53;;;4.13;;
36205;SDS011;22242;48.796;9.930;2023-02-13T10:54:46;4.35;;;3.95;;
36205;SDS011;22242;48.796;9.930;2023-02-13T10:57:30;4.75;;;4.35;;
36205;SDS011;22242;48.796;9.930;2023-02-13T11:00:09;4.60;;;4.20;;
36205;SDS011;22242;48.796;9.930;2023-02-13T11:02:44;4.30;;;4.00;;
36205;SDS011;22242;48.796;9.930;2023-02-13T11:05:14;5.55;;;4.93;;
36205;SDS011;22242;48.796;9.930;2023-02-13T11:07:44;4.72;;;4.25;;
36205;SDS011;22242;48.796;9.930;2023-02-13T11:10:13;5.07;;;4.57;;
36205;SDS011;22242;48.796;9.930;2023-02-13T11:12:42;5.32;;;4.43;;
36205;SDS011;22242;48.796;9.930;2023-02-13T11:15:18;5.22;;;4.68;;
36205;SDS011;22242;48.796;9.930;2023-02-13T11:17:47;5.10;;;4.60;;
36205;SDS011;22242;48.796;9.930;2023-02-13T11:20:24;5.93;;;5.28;;
36205;SDS011;22242;48.796;9.930;2023-02-13T11:23:09;6.75;;;5.38;;
36205;SDS011;22242;48.796;9.930;2023-02-13T11:25:52;5.90;;;5.20;;
36205;SDS011;22242;48.796;9.930;2023-02-13T11:28:22;5.78;;;5.18;;
36205;SDS011;22242;48.796;9.930;2023-02-13T11:30:49;6.63;;;5.70;;
36205;SDS011;22242;48.796;9.930;2023-02-13T11:33:21;6.85;;;5.78;;
36205;SDS011;22242;48.796;9.930;2023-02-13T11:36:02;6.07;;;4.93;;
36205;SDS011;22242;48.796;9.930;2023-02-13T11:38:31;6.82;;;5.50;;
36205;SDS011;22242;48.796;9.930;2023-02-13T11:41:03;6.45;;;5.05;;
36205;SDS011;22242;48.796;9.930;2023-02-13T11:43:33;6.28;;;5.32;;
36205;SDS011;22242;48.796;9.930;2023-02-13T11:46:04;6.68;;;5.65;;
36205;SDS011;22242;48.796;9.930;2023-02-13T11:48:32;6.65;;;5.38;;
36205;SDS011;22242;48.796;9.930;2023-02-13T11:51:02;7.35;;;6.05;;
36205;SDS011;22242;48.796;9.930;2023-02-13T11:53:30;7.00;;;5.88;;
36205;SDS011;22242;48.796;9.930;2023-02-13T11:56:03;8.75;;;6.30;;
36205;SDS011;22242;48.796;9.930;2023-02-13T11:58:33;9.43;;;6.45;;
36205;SDS011;22242;48.796;9.930;2023-02-13T12:01:07;7.47;;;6.32;;
36205;SDS011;22242;48.796;9.930;2023-02-13T12:03:56;10.93;;;6.85;;
36205;SDS011;22242;48.796;9.930;2023-02-13T12:06:29;8.27;;;6.32;;
36205;SDS011;22242;48.796;9.930;2023-02-13T12:09:04;8.02;;;6.13;;
36205;SDS011;22242;48.796;9.930;2023-02-13T12:11:38;9.90;;;6.80;;
36205;SDS011;22242;48.796;9.930;2023-02-13T12:14:09;10.23;;;7.05;;
36205;SDS011;22242;48.796;9.930;2023-02-13T12:16:39;11.50;;;6.15;;
36205;SDS011;22242;48.796;9.930;2023-02-13T12:19:10;9.68;;;6.47;;
36205;SDS011;22242;48.796;9.930;2023-02-13T12:21:47;9.50;;;6.55;;
36205;SDS011;22242;48.796;9.930;2023-02-13T12:24:33;9.65;;;6.43;;
36205;SDS011;22242;48.796;9.930;2023-02-13T12:27:16;8.60;;;6.03;;
36205;SDS011;22242;48.796;9.930;2023-02-13T12:29:55;10.60;;;6.63;;
36205;SDS011;22242;48.796;9.930;2023-02-13T12:32:46;10.10;;;6.82;;
36205;SDS011;22242;48.796;9.930;2023-02-13T12:35:38;9.27;;;6.63;;
36205;SDS011;22242;48.796;9.930;2023-02-13T12:38:17;9.65;;;6.45;;
36205;SDS011;22242;48.796;9.930;2023-02-13T12:41:00;9.52;;;6.88;;
36205;SDS011;22242;48.796;9.930;2023-02-13T12:46:43;8.93;;;6.30;;
36205;SDS011;22242;48.796;9.930;2023-02-13T12:49:22;8.38;;;6.07;;
36205;SDS011;22242;48.796;9.930;2023-02-13T12:52:06;11.00;;;7.07;;
36205;SDS011;22242;48.796;9.930;2023-02-13T12:54:48;11.82;;;6.80;;
36205;SDS011;22242;48.796;9.930;2023-02-13T12:57:33;9.93;;;7.32;;
36205;SDS011;22242;48.796;9.930;2023-02-13T13:00:16;11.43;;;7.53;;
36205;SDS011;22242;48.796;9.930;2023-02-13T13:03:02;10.07;;;6.63;;
36205;SDS011;22242;48.796;9.930;2023-02-13T13:05:45;13.73;;;7.60;;
36205;SDS011;22242;48.796;9.930;2023-02-13T13:08:31;10.57;;;7.30;;
36205;SDS011;22242;48.796;9.930;2023-02-13T13:11:14;9.90;;;7.10;;
36205;SDS011;22242;48.796;9.930;2023-02-13T13:13:53;11.30;;;7.68;;
36205;SDS011;22242;48.796;9.930;2023-02-13T13:16:29;11.60;;;7.60;;
36205;SDS011;22242;48.796;9.930;2023-02-13T13:19:04;11.85;;;7.75;;
36205;SDS011;22242;48.796;9.930;2023-02-13T13:21:38;14.23;;;7.88;;
36205;SDS011;22242;48.796;9.930;2023-02-13T13:24:21;14.60;;;8.45;;
36205;SDS011;22242;48.796;9.930;2023-02-13T13:26:56;14.70;;;8.25;;
36205;SDS011;22242;48.796;9.930;2023-02-13T13:29:25;15.75;;;8.65;;
36205;SDS011;22242;48.796;9.930;2023-02-13T13:31:59;15.38;;;9.20;;
36205;SDS011;22242;48.796;9.930;2023-02-13T13:34:28;15.27;;;9.15;;
36205;SDS011;22242;48.796;9.930;2023-02-13T13:36:58;15.20;;;9.35;;
36205;SDS011;22242;48.796;9.930;2023-02-13T13:39:36;14.52;;;8.77;;
36205;SDS011;22242;48.796;9.930;2023-02-13T13:42:13;12.88;;;8.18;;
36205;SDS011;22242;48.796;9.930;2023-02-13T13:45:01;15.90;;;9.23;;
36205;SDS011;22242;48.796;9.930;2023-02-13T13:47:40;15.57;;;8.80;;
36205;SDS011;22242;48.796;9.930;2023-02-13T13:50:20;13.52;;;8.40;;
36205;SDS011;22242;48.796;9.930;2023-02-13T13:53:04;16.85;;;9.52;;
36205;SDS011;22242;48.796;9.930;2023-02-13T13:58:42;14.95;;;8.82;;
36205;SDS011;22242;48.796;9.930;2023-02-13T14:03:55;14.60;;;9.20;;
36205;SDS011;22242;48.796;9.930;2023-02-13T14:06:24;15.15;;;8.98;;
36205;SDS011;22242;48.796;9.930;2023-02-13T14:09:03;15.82;;;9.30;;
36205;SDS011;22242;48.796;9.930;2023-02-13T14:12:33;17.75;;;10.15;;
36205;SDS011;22242;48.796;9.930;2023-02-13T14:15:03;19.20;;;9.68;;
36205;SDS011;22242;48.796;9.930;2023-02-13T14:17:52;20.33;;;10.20;;
36205;SDS011;22242;48.796;9.930;2023-02-13T14:20:21;17.92;;;10.07;;
36205;SDS011;22242;48.796;9.930;2023-02-13T14:22:56;18.90;;;10.38;;
36205;SDS011;22242;48.796;9.930;2023-02-13T14:25:33;19.90;;;10.70;;
36205;SDS011;22242;48.796;9.930;2023-02-13T14:28:01;16.15;;;9.90;;
36205;SDS011;22242;48.796;9.930;2023-02-13T14:30:32;17.08;;;10.10;;
36205;SDS011;22242;48.796;9.930;2023-02-13T14:33:02;16.50;;;9.25;;
36205;SDS011;22242;48.796;9.930;2023-02-13T14:35:32;17.80;;;9.45;;
36205;SDS011;22242;48.796;9.930;2023-02-13T14:38:02;15.57;;;8.80;;
36205;SDS011;22242;48.796;9.930;2023-02-13T14:43:30;15.00;;;8.75;;
36205;SDS011;22242;48.796;9.930;2023-02-13T14:46:21;15.10;;;8.88;;
36205;SDS011;22242;48.796;9.930;2023-02-13T14:48:55;15.20;;;8.88;;
36205;SDS011;22242;48.796;9.930;2023-02-13T14:51:28;17.52;;;9.25;;
36205;SDS011;22242;48.796;9.930;2023-02-13T14:54:02;16.88;;;8.90;;
36205;SDS011;22242;48.796;9.930;2023-02-13T14:56:32;15.93;;;9.25;;
36205;SDS011;22242;48.796;9.930;2023-02-13T14:59:00;16.20;;;9.30;;
36205;SDS011;22242;48.796;9.930;2023-02-13T15:01:39;17.45;;;10.38;;
36205;SDS011;22242;48.796;9.930;2023-02-13T15:04:11;17.05;;;9.52;;
36205;SDS011;22242;48.796;9.930;2023-02-13T15:06:42;16.60;;;9.45;;
36205;SDS011;22242;48.796;9.930;2023-02-13T15:09:16;18.17;;;9.63;;
36205;SDS011;22242;48.796;9.930;2023-02-13T15:11:47;18.17;;;9.48;;
36205;SDS011;22242;48.796;9.930;2023-02-13T15:14:26;16.30;;;10.00;;
36205;SDS011;22242;48.796;9.930;2023-02-13T15:17:00;15.70;;;9.18;;
36205;SDS011;22242;48.796;9.930;2023-02-13T15:19:32;16.27;;;9.48;;
36205;SDS011;22242;48.796;9.930;2023-02-13T15:22:02;17.48;;;10.05;;
36205;SDS011;22242;48.796;9.930;2023-02-13T15:24:37;16.83;;;9.73;;
36205;SDS011;22242;48.796;9.930;2023-02-13T15:27:15;18.77;;;10.48;;
36205;SDS011;22242;48.796;9.930;2023-02-13T15:29:54;16.25;;;8.68;;
36205;SDS011;22242;48.796;9.930;2023-02-13T15:32:28;17.67;;;9.65;;
36205;SDS011;22242;48.796;9.930;2023-02-13T15:34:57;20.80;;;10.52;;